Time;durP1;ratioP1;P1;durP2;ratioP2;P2;SDS_P1;SDS_P2;PMS_P1;PMS_P2;Temp;Humidity;BMP_temperature;BMP_pressure;BME280_temperature;BME280_humidity;BME280_pressure;Samples;Min_cycle;Max_cycle;Signal;HPM_P1;HPM_P2
2023/06/23 00:01:17;;;;;;;14.60;12.32;;;20.20;99.90;;;;;;5073790;28;20035;-79
2023/06/23 00:03:45;;;;;;;13.30;11.95;;;20.20;99.90;;;;;;5073905;28;20093;-80
2023/06/23 00:06:11;;;;;;;12.82;11.02;;;20.20;99.90;;;;;;5072733;28;20013;-81
2023/06/23 00:08:40;;;;;;;13.20;11.80;;;20.10;99.90;;;;;;5074230;28;20021;-81
2023/06/23 00:11:07;;;;;;;12.98;11.65;;;20.10;99.90;;;;;;5072872;28;20070;-80
2023/06/23 00:13:34;;;;;;;14.13;12.35;;;20.10;99.90;;;;;;5072745;28;20393;-79
2023/06/23 00:16:05;;;;;;;14.07;10.80;;;20.10;99.90;;;;;;5072788;28;20052;-80
2023/06/23 00:18:39;;;;;;;14.02;11.88;;;20.10;99.90;;;;;;5072617;28;20469;-81
2023/06/23 00:21:06;;;;;;;13.02;11.63;;;20.10;99.90;;;;;;5073920;28;20470;-79
2023/06/23 00:23:32;;;;;;;12.98;10.65;;;20.00;99.90;;;;;;5073445;28;20096;-79
2023/06/23 00:25:59;;;;;;;12.48;10.95;;;20.00;99.90;;;;;;5073712;28;20510;-81
2023/06/23 00:28:25;;;;;;;13.40;10.65;;;20.00;99.90;;;;;;5073806;28;20029;-79
2023/06/23 00:30:51;;;;;;;13.40;10.75;;;20.00;99.90;;;;;;5073967;28;20025;-81
2023/06/23 00:33:17;;;;;;;12.68;11.30;;;20.00;99.90;;;;;;5073927;28;20073;-79
2023/06/23 00:35:43;;;;;;;13.57;11.68;;;20.00;99.90;;;;;;5073794;28;20420;-79
2023/06/23 00:38:08;;;;;;;17.75;11.63;;;19.90;99.90;;;;;;5072616;28;20112;-81
2023/06/23 00:40:34;;;;;;;12.10;10.90;;;19.90;99.90;;;;;;5073597;28;20020;-79
2023/06/23 00:43:00;;;;;;;12.57;11.27;;;19.80;99.90;;;;;;5072130;28;20032;-81
2023/06/23 00:45:26;;;;;;;12.90;11.57;;;19.80;99.90;;;;;;5072044;28;20023;-79
2023/06/23 00:47:52;;;;;;;12.02;10.48;;;19.80;99.90;;;;;;5072607;28;20131;-80
2023/06/23 00:50:20;;;;;;;13.98;11.88;;;19.80;99.90;;;;;;5073803;28;20031;-79
2023/06/23 00:52:50;;;;;;;11.43;10.20;;;19.80;99.90;;;;;;5072309;28;20035;-81
2023/06/23 00:55:24;;;;;;;16.48;11.65;;;19.80;99.90;;;;;;5073848;28;20070;-81
2023/06/23 00:57:51;;;;;;;11.73;10.60;;;19.80;99.90;;;;;;5072093;28;20025;-80
2023/06/23 01:00:18;;;;;;;13.23;11.60;;;19.80;99.90;;;;;;5072226;28;20032;-79
2023/06/23 01:02:49;;;;;;;14.90;10.98;;;19.80;99.90;;;;;;5071851;28;20040;-81
2023/06/23 01:05:35;;;;;;;13.07;10.98;;;19.80;99.90;;;;;;5072026;28;20492;-80
2023/06/23 01:08:15;;;;;;;10.75;9.60;;;19.80;99.90;;;;;;5071976;28;20090;-80
2023/06/23 01:10:51;;;;;;;12.00;10.48;;;19.80;99.90;;;;;;5072212;28;20023;-80
2023/06/23 01:13:43;;;;;;;12.95;10.60;;;19.80;99.90;;;;;;5073478;28;20382;-79
2023/06/23 01:16:15;;;;;;;13.60;10.88;;;19.90;99.90;;;;;;5072188;28;20024;-80
2023/06/23 01:18:58;;;;;;;11.55;10.35;;;19.90;99.90;;;;;;5071936;28;20393;-80
2023/06/23 01:21:39;;;;;;;11.52;9.98;;;19.80;99.90;;;;;;5072035;28;20017;-80
2023/06/23 01:24:26;;;;;;;11.35;10.23;;;19.80;99.90;;;;;;5071814;28;20028;-80
2023/06/23 01:27:04;;;;;;;12.57;10.15;;;19.80;99.90;;;;;;5073141;28;20017;-79
2023/06/23 01:29:34;;;;;;;11.77;9.73;;;19.80;99.90;;;;;;5071812;28;20082;-81
2023/06/23 01:32:08;;;;;;;10.85;9.75;;;19.80;99.90;;;;;;5072192;28;20035;-79
2023/06/23 01:34:43;;;;;;;11.40;10.15;;;19.80;99.90;;;;;;5073295;28;20021;-82
2023/06/23 01:37:12;;;;;;;11.50;10.40;;;19.80;99.90;;;;;;5073185;28;20021;-80
2023/06/23 01:39:43;;;;;;;12.38;10.80;;;19.80;99.90;;;;;;5071635;28;20054;-80
2023/06/23 01:42:14;;;;;;;12.77;11.35;;;19.80;99.90;;;;;;5071637;28;20075;-81
2023/06/23 01:44:46;;;;;;;10.23;9.23;;;19.70;99.90;;;;;;5073010;28;20100;-81
2023/06/23 01:47:18;;;;;;;11.90;10.17;;;19.70;99.90;;;;;;5072762;28;20418;-79
2023/06/23 01:49:45;;;;;;;13.30;9.88;;;19.60;99.90;;;;;;5071664;28;20048;-80
2023/06/23 01:52:13;;;;;;;11.65;9.93;;;19.60;99.90;;;;;;5071714;28;20402;-80
2023/06/23 01:54:40;;;;;;;12.40;10.32;;;19.50;99.90;;;;;;5073135;28;20098;-81
2023/06/23 01:57:10;;;;;;;13.65;10.77;;;19.50;99.90;;;;;;5071550;28;20378;-79
2023/06/23 01:59:38;;;;;;;12.70;9.85;;;19.40;99.90;;;;;;5073680;28;20021;-80
2023/06/23 02:02:06;;;;;;;11.18;10.00;;;19.40;99.90;;;;;;5076348;28;20017;-79
2023/06/23 02:04:34;;;;;;;12.13;10.57;;;19.40;99.90;;;;;;5076559;28;20028;-79
2023/06/23 02:07:00;;;;;;;22.33;10.68;;;19.30;99.90;;;;;;5076546;28;20027;-79
2023/06/23 02:09:29;;;;;;;14.57;10.68;;;19.30;99.90;;;;;;5075132;28;20478;-80
2023/06/23 02:11:57;;;;;;;12.35;10.80;;;19.30;99.90;;;;;;5074971;28;20017;-81
2023/06/23 02:14:24;;;;;;;12.63;11.32;;;19.20;99.90;;;;;;5075270;28;20385;-80
2023/06/23 02:16:51;;;;;;;13.80;11.07;;;19.30;99.90;;;;;;5076469;28;20029;-80
2023/06/23 02:19:19;;;;;;;14.93;11.07;;;19.20;99.90;;;;;;5076386;28;20389;-79
2023/06/23 02:21:45;;;;;;;13.80;11.38;;;19.20;99.90;;;;;;5074906;28;20474;-79
2023/06/23 02:24:12;;;;;;;12.32;10.07;;;19.20;99.90;;;;;;5074777;28;20396;-80
2023/06/23 02:26:39;;;;;;;13.55;10.88;;;19.20;99.90;;;;;;5074806;28;20024;-80
2023/06/23 02:29:07;;;;;;;12.93;10.40;;;19.20;99.90;;;;;;5074633;28;20375;-80
2023/06/23 02:31:33;;;;;;;12.02;10.55;;;19.10;99.90;;;;;;5076029;28;20042;-80
2023/06/23 02:33:59;;;;;;;11.52;10.32;;;19.20;99.90;;;;;;5075924;28;20193;-80
2023/06/23 02:36:43;;;;;;;15.82;10.98;;;19.20;99.90;;;;;;5074876;28;20450;-80
2023/06/23 02:39:11;;;;;;;12.57;10.55;;;19.20;99.90;;;;;;5074742;28;20031;-79
2023/06/23 02:41:39;;;;;;;12.15;10.85;;;19.20;99.90;;;;;;5074544;28;20074;-79
2023/06/23 02:44:11;;;;;;;14.82;10.82;;;19.20;99.90;;;;;;5074351;28;20033;-79
2023/06/23 02:46:39;;;;;;;15.43;9.95;;;19.20;99.90;;;;;;5074498;28;20024;-80
2023/06/23 02:49:14;;;;;;;12.60;11.27;;;19.20;99.90;;;;;;5075613;28;20057;-80
2023/06/23 02:51:43;;;;;;;12.57;11.00;;;19.30;99.90;;;;;;5075593;28;20024;-80
2023/06/23 02:54:12;;;;;;;11.05;9.85;;;19.30;99.90;;;;;;5074257;28;20115;-81
2023/06/23 02:56:42;;;;;;;17.20;10.38;;;19.30;99.90;;;;;;5075644;28;20024;-80
2023/06/23 02:59:12;;;;;;;14.70;10.43;;;19.40;99.90;;;;;;5074240;28;20069;-80
2023/06/23 03:01:40;;;;;;;11.02;9.63;;;19.50;99.90;;;;;;5074350;28;20032;-81
2023/06/23 03:04:06;;;;;;;13.70;10.18;;;19.50;99.90;;;;;;5073776;28;20542;-80
2023/06/23 03:06:35;;;;;;;11.88;10.50;;;19.60;99.90;;;;;;5075263;28;20107;-80
2023/06/23 03:09:06;;;;;;;12.38;10.93;;;19.70;99.90;;;;;;5075273;28;20059;-79
2023/06/23 03:11:33;;;;;;;15.60;10.50;;;19.70;99.90;;;;;;5074599;28;20178;-80
2023/06/23 03:13:59;;;;;;;11.68;9.73;;;19.80;99.90;;;;;;5073756;28;20033;-80
2023/06/23 03:16:30;;;;;;;11.20;10.02;;;19.80;99.90;;;;;;5073729;28;20044;-80
2023/06/23 03:19:07;;;;;;;12.48;11.18;;;19.90;99.90;;;;;;5073735;28;20021;-81
2023/06/23 03:21:35;;;;;;;11.77;10.40;;;20.00;99.90;;;;;;5073820;28;20169;-81
2023/06/23 03:24:06;;;;;;;10.52;9.38;;;20.10;99.90;;;;;;5073536;28;20040;-81
2023/06/23 03:26:36;;;;;;;13.75;9.30;;;20.20;99.90;;;;;;5074993;28;20478;-81
2023/06/23 03:29:06;;;;;;;11.93;10.68;;;20.30;99.90;;;;;;5074740;28;20082;-82
2023/06/23 03:31:34;;;;;;;13.30;9.98;;;20.30;99.90;;;;;;5073444;28;20421;-81
2023/06/23 03:34:01;;;;;;;14.30;10.63;;;20.40;99.90;;;;;;5073421;28;20024;-82
2023/06/23 03:36:27;;;;;;;12.30;10.73;;;20.50;99.90;;;;;;5074769;28;20433;-80
2023/06/23 03:39:04;;;;;;;14.27;11.27;;;20.50;99.90;;;;;;5074545;28;20035;-80
2023/06/23 03:41:32;;;;;;;11.30;10.18;;;20.60;99.90;;;;;;5074667;28;20103;-81
2023/06/23 03:44:01;;;;;;;12.93;11.32;;;20.70;99.90;;;;;;5074415;28;20040;-80
2023/06/23 03:46:38;;;;;;;13.02;10.95;;;20.70;99.90;;;;;;5073121;28;20021;-80
2023/06/23 03:49:07;;;;;;;14.10;9.82;;;20.70;99.90;;;;;;5074509;28;20052;-81
2023/06/23 03:51:36;;;;;;;12.70;9.60;;;20.80;99.90;;;;;;5072983;28;20024;-80
2023/06/23 03:54:03;;;;;;;11.30;10.13;;;20.80;99.90;;;;;;5074284;28;20021;-80
2023/06/23 03:56:34;;;;;;;14.85;10.02;;;20.90;99.90;;;;;;5073071;28;20433;-80
2023/06/23 03:59:02;;;;;;;13.00;10.25;;;20.90;99.90;;;;;;5073098;28;20039;-79
2023/06/23 04:01:29;;;;;;;11.80;10.38;;;21.00;99.90;;;;;;5073122;28;20024;-80
2023/06/23 04:03:57;;;;;;;12.40;11.10;;;21.00;99.90;;;;;;5072804;28;20498;-80
2023/06/23 04:06:25;;;;;;;13.20;10.85;;;21.00;99.90;;;;;;5074180;28;20021;-81
2023/06/23 04:08:53;;;;;;;11.55;10.18;;;21.10;99.90;;;;;;5073987;28;20013;-81
2023/06/23 04:11:21;;;;;;;14.52;11.13;;;21.10;99.90;;;;;;5074026;28;20025;-79
2023/06/23 04:13:49;;;;;;;11.93;10.10;;;21.10;99.90;;;;;;5073919;28;20052;-80
2023/06/23 04:16:16;;;;;;;12.48;10.50;;;21.20;99.90;;;;;;5073922;28;20016;-80
2023/06/23 04:18:45;;;;;;;12.02;10.00;;;21.20;99.90;;;;;;5073810;28;20032;-80
2023/06/23 04:21:12;;;;;;;12.77;10.65;;;21.20;99.90;;;;;;5073863;28;20038;-81
2023/06/23 04:23:40;;;;;;;13.95;10.90;;;21.20;99.90;;;;;;5071678;28;20028;-80
2023/06/23 04:26:08;;;;;;;12.02;10.65;;;21.20;99.90;;;;;;5072623;28;20047;-80
2023/06/23 04:28:35;;;;;;;13.38;10.52;;;21.20;99.90;;;;;;5072413;28;20535;-81
2023/06/23 04:31:06;;;;;;;12.23;10.93;;;21.20;99.90;;;;;;5073789;28;20025;-80
2023/06/23 04:33:31;;;;;;;14.40;11.38;;;21.30;99.90;;;;;;5072318;28;20017;-82
2023/06/23 04:36:05;;;;;;;11.48;10.38;;;21.30;99.90;;;;;;5072685;28;20058;-80
2023/06/23 04:38:36;;;;;;;14.30;12.20;;;21.40;99.90;;;;;;5072261;28;20477;-81
2023/06/23 04:41:09;;;;;;;16.65;11.60;;;21.50;99.90;;;;;;5072405;28;20111;-81
2023/06/23 04:43:40;;;;;;;16.75;12.98;;;21.60;99.90;;;;;;5072203;28;20025;-80
2023/06/23 04:46:19;;;;;;;16.10;12.45;;;21.70;99.90;;;;;;5072217;28;20028;-80
2023/06/23 04:48:55;;;;;;;12.80;11.50;;;21.80;99.90;;;;;;5072053;28;20049;-80
2023/06/23 04:51:25;;;;;;;13.10;11.75;;;21.80;99.90;;;;;;5073714;28;20017;-81
2023/06/23 04:53:56;;;;;;;16.15;13.10;;;21.80;99.90;;;;;;5073422;28;20027;-81
2023/06/23 04:56:25;;;;;;;14.73;12.52;;;21.90;99.90;;;;;;5073312;28;20055;-81
2023/06/23 04:58:57;;;;;;;14.48;13.02;;;21.90;99.90;;;;;;5071989;28;20021;-81
2023/06/23 05:01:24;;;;;;;13.97;12.23;;;22.00;99.90;;;;;;5072649;28;20386;-80
2023/06/23 05:03:52;;;;;;;15.15;13.55;;;22.10;99.90;;;;;;5073205;28;20290;-80
2023/06/23 05:06:20;;;;;;;15.82;13.73;;;22.10;99.90;;;;;;5073453;28;20083;-80
2023/06/23 05:08:49;;;;;;;16.33;14.25;;;22.10;99.90;;;;;;5073194;28;20474;-80
2023/06/23 05:11:16;;;;;;;16.10;13.85;;;22.10;99.90;;;;;;5073269;28;20021;-80
2023/06/23 05:13:43;;;;;;;17.58;13.32;;;22.10;99.90;;;;;;5071932;28;20543;-80
2023/06/23 05:16:11;;;;;;;17.67;13.30;;;22.20;99.90;;;;;;5071990;28;20017;-80
2023/06/23 05:18:39;;;;;;;17.83;13.95;;;22.20;99.90;;;;;;5071854;28;20017;-81
2023/06/23 05:21:06;;;;;;;19.17;14.55;;;22.40;99.90;;;;;;5071887;28;20025;-80
2023/06/23 05:23:36;;;;;;;15.48;13.75;;;22.50;99.90;;;;;;5073052;28;20029;-80
2023/06/23 05:26:06;;;;;;;16.88;14.13;;;22.70;99.90;;;;;;5073548;28;20872;-81
2023/06/23 05:28:35;;;;;;;16.58;14.05;;;22.80;99.90;;;;;;5071812;28;20551;-80
2023/06/23 05:31:03;;;;;;;17.10;14.43;;;22.90;99.90;;;;;;5071804;28;20021;-80
2023/06/23 05:33:33;;;;;;;18.55;14.75;;;23.00;99.90;;;;;;5073475;28;20187;-80
2023/06/23 05:36:01;;;;;;;17.30;14.73;;;23.10;99.90;;;;;;5076016;28;20029;-82
2023/06/23 05:38:29;;;;;;;17.10;14.27;;;23.10;99.90;;;;;;5075665;28;20017;-80
2023/06/23 05:40:55;;;;;;;21.70;15.32;;;23.10;99.90;;;;;;5076899;28;20021;-81
2023/06/23 05:43:21;;;;;;;32.45;13.68;;;22.80;99.90;;;;;;5076720;28;20047;-80
2023/06/23 05:45:47;;;;;;;15.90;11.02;;;22.50;99.90;;;;;;5076998;28;20021;-80
2023/06/23 05:48:28;;;;;;;14.38;9.77;;;22.00;99.90;;;;;;5076873;28;20050;-79
2023/06/23 05:50:56;;;;;;;15.88;9.68;;;21.80;99.90;;;;;;5076886;28;20020;-80
2023/06/23 05:53:25;;;;;;;13.68;9.45;;;21.40;99.90;;;;;;5076678;28;20032;-80
2023/06/23 05:56:19;;;;;;;12.52;7.03;;;21.30;99.90;;;;;;5076598;28;20012;-81
2023/06/23 05:58:47;;;;;;;13.00;7.18;;;21.10;99.90;;;;;;5075264;28;20036;-81
2023/06/23 06:01:16;;;;;;;16.90;6.15;;;20.80;99.90;;;;;;5075321;28;20394;-82
2023/06/23 06:04:00;;;;;;;17.40;6.03;;;20.50;99.90;;;;;;5075185;28;20029;-80
2023/06/23 06:06:27;;;;;;;11.50;5.03;;;20.30;99.90;;;;;;5075631;28;20021;-80
2023/06/23 06:08:57;;;;;;;12.85;5.45;;;20.00;99.90;;;;;;5076595;28;20024;-80
2023/06/23 06:11:23;;;;;;;15.40;6.90;;;19.80;99.90;;;;;;5075301;28;20020;-81
2023/06/23 06:13:51;;;;;;;15.82;6.05;;;19.70;99.90;;;;;;5076414;28;20132;-81
2023/06/23 06:16:18;;;;;;;17.05;7.47;;;19.70;99.90;;;;;;5075005;28;20045;-80
2023/06/23 06:18:45;;;;;;;12.70;5.90;;;19.50;99.90;;;;;;5074816;28;20013;-80
2023/06/23 06:21:13;;;;;;;12.50;6.03;;;19.50;99.90;;;;;;5076196;28;20099;-81
2023/06/23 06:23:40;;;;;;;16.58;5.97;;;19.40;99.90;;;;;;5092510;28;20036;-81
2023/06/23 06:26:09;;;;;;;15.80;6.35;;;19.30;99.90;;;;;;5096440;28;20903;-82
2023/06/23 06:28:36;;;;;;;12.45;5.53;;;19.30;99.90;;;;;;5095288;28;20041;-80
2023/06/23 06:31:02;;;;;;;14.50;5.53;;;19.30;99.90;;;;;;5095185;28;20016;-80
2023/06/23 06:33:30;;;;;;;14.07;6.18;;;19.30;99.90;;;;;;5096452;28;20052;-81
2023/06/23 06:36:00;;;;;;;9.65;6.30;;;19.20;99.90;;;;;;5095068;28;20053;-81
2023/06/23 06:38:29;;;;;;;15.55;6.40;;;19.20;99.90;;;;;;5096162;28;20496;-80
2023/06/23 06:40:56;;;;;;;19.10;6.82;;;19.10;99.90;;;;;;5096118;28;20099;-81
2023/06/23 06:43:22;;;;;;;14.00;7.20;;;19.10;99.90;;;;;;5095864;28;20046;-81
2023/06/23 06:45:50;;;;;;;14.70;7.03;;;19.00;99.90;;;;;;5094966;28;20386;-81
2023/06/23 06:48:16;;;;;;;14.88;6.38;;;19.10;99.90;;;;;;5094594;28;20077;-81
2023/06/23 06:50:43;;;;;;;18.55;7.47;;;19.10;99.90;;;;;;5094773;28;20024;-80
2023/06/23 06:53:10;;;;;;;17.58;7.55;;;19.00;99.90;;;;;;5094658;28;20117;-81
2023/06/23 06:55:38;;;;;;;23.10;7.72;;;19.00;99.90;;;;;;5094635;28;20051;-81
2023/06/23 06:58:03;;;;;;;10.63;6.18;;;18.90;99.90;;;;;;5094394;28;20024;-80
2023/06/23 07:00:30;;;;;;;15.65;5.63;;;18.80;99.90;;;;;;5094381;28;20417;-80
2023/06/23 07:02:57;;;;;;;13.23;6.25;;;18.80;99.90;;;;;;5095487;28;20036;-80
2023/06/23 07:05:22;;;;;;;16.50;6.85;;;18.70;99.90;;;;;;5094604;28;20473;-81
2023/06/23 07:07:48;;;;;;;10.90;6.68;;;18.70;99.90;;;;;;5096094;28;20034;-80
2023/06/23 07:10:14;;;;;;;13.70;6.53;;;18.70;99.90;;;;;;5094294;28;20035;-80
2023/06/23 07:12:39;;;;;;;17.92;6.45;;;18.70;99.90;;;;;;5095562;28;20085;-80
2023/06/23 07:15:07;;;;;;;11.38;6.90;;;18.80;99.90;;;;;;5094165;28;20020;-80
2023/06/23 07:17:33;;;;;;;13.65;6.25;;;18.80;99.90;;;;;;5095387;28;20023;-80
2023/06/23 07:19:59;;;;;;;19.27;7.20;;;18.90;99.90;;;;;;5095371;28;20028;-80
2023/06/23 07:22:24;;;;;;;14.85;6.10;;;18.90;99.90;;;;;;5093764;28;20019;-80
2023/06/23 07:24:50;;;;;;;15.63;6.53;;;18.90;99.90;;;;;;5094177;28;20028;-80
2023/06/23 07:27:16;;;;;;;18.13;7.10;;;18.90;99.90;;;;;;5094045;28;20036;-80
2023/06/23 07:29:42;;;;;;;14.90;8.25;;;19.00;99.90;;;;;;5095140;28;20027;-80
2023/06/23 07:32:08;;;;;;;14.55;7.90;;;19.00;99.90;;;;;;5095150;28;20069;-80
2023/06/23 07:34:34;;;;;;;11.55;6.90;;;19.00;99.90;;;;;;5093784;28;20111;-80
2023/06/23 07:37:00;;;;;;;12.60;7.18;;;19.00;99.90;;;;;;5095107;28;20031;-80
2023/06/23 07:39:25;;;;;;;13.48;7.95;;;19.00;99.90;;;;;;5095204;28;20052;-80
2023/06/23 07:41:51;;;;;;;14.13;6.70;;;19.10;99.90;;;;;;5095660;28;20099;-80
2023/06/23 07:44:16;;;;;;;13.65;7.88;;;19.10;99.90;;;;;;5085795;28;20036;-80
2023/06/23 07:46:43;;;;;;;15.75;8.45;;;19.10;99.90;;;;;;5073448;28;20465;-80
2023/06/23 07:49:09;;;;;;;14.57;8.00;;;19.20;99.90;;;;;;5073350;28;20060;-81
2023/06/23 07:51:34;;;;;;;10.65;7.68;;;19.30;99.90;;;;;;5073302;28;20021;-80
2023/06/23 07:54:00;;;;;;;20.70;9.20;;;19.30;99.90;;;;;;5073108;28;20056;-80
2023/06/23 07:56:25;;;;;;;17.05;8.30;;;19.30;99.90;;;;;;5073149;28;20027;-81
2023/06/23 07:58:51;;;;;;;15.75;7.25;;;19.30;99.90;;;;;;5073315;28;20059;-81
2023/06/23 08:01:17;;;;;;;18.08;7.53;;;19.40;99.90;;;;;;5074622;28;20043;-81
2023/06/23 08:03:46;;;;;;;15.77;8.82;;;19.40;99.90;;;;;;5072953;28;20036;-81
2023/06/23 08:06:12;;;;;;;19.55;10.05;;;19.30;99.90;;;;;;5074386;28;20036;-81
2023/06/23 08:08:38;;;;;;;23.05;9.85;;;19.20;99.90;;;;;;5072950;28;20012;-80
2023/06/23 08:11:04;;;;;;;14.95;8.93;;;19.30;99.90;;;;;;5074426;28;20027;-80
2023/06/23 08:13:29;;;;;;;20.67;9.40;;;19.40;99.90;;;;;;5073149;28;20141;-80
2023/06/23 08:15:55;;;;;;;15.52;8.20;;;19.40;99.90;;;;;;5074222;28;20517;-81
2023/06/23 08:18:21;;;;;;;15.63;9.38;;;19.50;99.90;;;;;;5072842;28;20362;-81
2023/06/23 08:20:46;;;;;;;15.20;7.47;;;19.60;99.90;;;;;;5073993;28;20028;-80
2023/06/23 08:23:12;;;;;;;16.63;7.97;;;19.60;99.90;;;;;;5072690;28;20036;-80
2023/06/23 08:25:37;;;;;;;16.42;7.63;;;19.70;99.90;;;;;;5074209;28;20031;-80
2023/06/23 08:28:03;;;;;;;16.63;7.90;;;19.70;99.90;;;;;;5072617;28;20024;-81
2023/06/23 08:30:30;;;;;;;15.60;7.57;;;19.80;99.90;;;;;;5072831;28;20099;-80
2023/06/23 08:32:57;;;;;;;13.43;8.30;;;19.90;99.90;;;;;;5072576;28;20019;-80
2023/06/23 08:35:22;;;;;;;13.05;7.47;;;20.00;99.90;;;;;;5074155;28;20099;-80
2023/06/23 08:37:48;;;;;;;14.73;8.38;;;20.00;99.90;;;;;;5072691;28;20067;-81
2023/06/23 08:40:14;;;;;;;58.00;12.98;;;20.10;99.90;;;;;;5072573;28;20389;-80
2023/06/23 08:42:40;;;;;;;25.02;8.32;;;20.20;99.90;;;;;;5073708;28;20499;-81
2023/06/23 08:45:07;;;;;;;24.30;8.80;;;20.40;99.90;;;;;;5073760;28;20031;-80
2023/06/23 08:47:37;;;;;;;27.58;9.95;;;20.50;99.90;;;;;;5072271;28;20064;-80
2023/06/23 08:50:03;;;;;;;14.35;7.72;;;20.60;99.90;;;;;;5072720;28;20086;-81
2023/06/23 08:52:29;;;;;;;13.27;7.25;;;20.60;99.90;;;;;;5072423;28;20016;-80
2023/06/23 08:54:55;;;;;;;14.55;7.53;;;20.80;99.90;;;;;;5072269;28;20086;-81
2023/06/23 08:57:21;;;;;;;15.00;8.40;;;20.90;99.90;;;;;;5072189;28;20038;-80
2023/06/23 08:59:47;;;;;;;22.05;8.32;;;21.20;99.90;;;;;;5073569;28;20492;-80
2023/06/23 09:02:12;;;;;;;19.30;9.02;;;21.20;99.90;;;;;;5073759;28;20028;-80
2023/06/23 09:04:39;;;;;;;16.10;8.68;;;21.40;99.90;;;;;;5073812;28;20028;-80
2023/06/23 09:07:05;;;;;;;22.15;9.55;;;21.50;99.90;;;;;;5072300;28;20036;-80
2023/06/23 09:09:31;;;;;;;15.65;9.25;;;21.70;99.90;;;;;;5071524;28;20025;-82
2023/06/23 09:11:58;;;;;;;15.23;9.77;;;21.90;99.90;;;;;;5073326;28;20017;-80
2023/06/23 09:14:29;;;;;;;15.32;9.38;;;22.10;99.90;;;;;;5073521;28;20390;-80
2023/06/23 09:16:56;;;;;;;16.75;9.57;;;22.30;99.90;;;;;;5072500;28;20026;-80
2023/06/23 09:19:23;;;;;;;19.60;10.30;;;22.50;99.90;;;;;;5073708;28;20028;-81
2023/06/23 09:21:49;;;;;;;18.73;10.88;;;22.70;99.90;;;;;;5072169;28;20028;-81
2023/06/23 09:24:15;;;;;;;21.38;11.52;;;22.90;99.90;;;;;;5073558;28;20501;-80
2023/06/23 09:26:49;;;;;;;17.60;11.15;;;23.00;99.90;;;;;;5072061;28;20017;-81
2023/06/23 09:29:17;;;;;;;19.10;12.60;;;23.20;99.90;;;;;;5073313;28;20059;-80
2023/06/23 09:31:42;;;;;;;21.83;12.55;;;23.30;99.90;;;;;;5072085;28;20060;-81
2023/06/23 09:34:08;;;;;;;17.30;12.55;;;23.50;99.90;;;;;;5073702;28;20056;-80
2023/06/23 09:36:35;;;;;;;18.90;13.77;;;23.70;99.90;;;;;;5073400;28;20031;-80
2023/06/23 09:39:01;;;;;;;25.63;16.23;;;23.90;99.90;;;;;;5072170;28;20435;-80
2023/06/23 09:41:31;;;;;;;27.90;15.88;;;24.00;99.90;;;;;;5071946;28;20052;-81
2023/06/23 09:43:57;;;;;;;25.88;16.38;;;24.10;99.90;;;;;;5071809;28;20037;-80
2023/06/23 09:46:23;;;;;;;26.63;15.80;;;24.20;99.90;;;;;;5071890;28;20021;-81
2023/06/23 09:48:50;;;;;;;21.15;15.60;;;24.40;99.90;;;;;;5073095;28;20043;-80
2023/06/23 09:51:19;;;;;;;24.13;15.25;;;24.40;99.90;;;;;;5072986;28;20550;-80
2023/06/23 09:53:45;;;;;;;23.17;15.57;;;24.50;99.90;;;;;;5073084;28;20021;-82
2023/06/23 09:56:18;;;;;;;23.88;15.73;;;24.70;99.90;;;;;;5071746;28;20070;-81
2023/06/23 09:58:45;;;;;;;24.42;17.92;;;24.80;99.90;;;;;;5071750;28;20049;-80
2023/06/23 10:01:15;;;;;;;30.42;17.98;;;25.00;99.90;;;;;;5073389;28;20138;-81
2023/06/23 10:04:02;;;;;;;19.27;16.42;;;25.00;99.90;;;;;;5071778;28;20489;-82
2023/06/23 10:06:32;;;;;;;24.77;18.52;;;25.10;99.90;;;;;;5072991;28;20032;-80
2023/06/23 10:08:59;;;;;;;27.67;18.30;;;25.10;99.90;;;;;;5073189;28;20029;-80
2023/06/23 10:11:33;;;;;;;25.38;17.77;;;25.30;99.90;;;;;;5072994;28;20393;-81
2023/06/23 10:14:22;;;;;;;23.48;18.17;;;25.50;99.90;;;;;;5073565;28;20028;-80
2023/06/23 10:16:48;;;;;;;24.95;19.02;;;25.70;99.90;;;;;;5072387;28;20044;-80
2023/06/23 10:19:14;;;;;;;27.15;19.73;;;25.70;99.90;;;;;;5072866;28;20025;-80
2023/06/23 10:21:40;;;;;;;24.80;19.27;;;25.90;99.90;;;;;;5075155;28;20027;-81
2023/06/23 10:24:10;;;;;;;22.92;19.33;;;26.00;99.90;;;;;;5076151;28;20111;-80
2023/06/23 10:26:37;;;;;;;26.80;19.00;;;26.10;99.90;;;;;;5076314;28;20104;-82
2023/06/23 10:29:11;;;;;;;24.20;19.20;;;26.20;99.90;;;;;;5075123;28;20075;-81
2023/06/23 10:31:37;;;;;;;25.92;19.10;;;26.30;99.90;;;;;;5076353;28;20096;-82
2023/06/23 10:34:05;;;;;;;27.02;18.77;;;26.20;99.90;;;;;;5074893;28;20025;-80
2023/06/23 10:36:35;;;;;;;22.40;18.50;;;26.30;99.90;;;;;;5076316;28;20540;-81
2023/06/23 10:39:03;;;;;;;21.30;18.25;;;26.40;99.90;;;;;;5075236;28;20043;-80
2023/06/23 10:41:29;;;;;;;24.50;17.77;;;26.30;99.90;;;;;;5076187;28;20465;-82
2023/06/23 10:43:56;;;;;;;25.55;18.10;;;26.20;99.90;;;;;;5074731;28;20044;-81
2023/06/23 10:46:26;;;;;;;22.20;18.58;;;26.10;99.90;;;;;;5075935;28;20396;-81
2023/06/23 10:48:52;;;;;;;20.88;17.25;;;26.30;99.90;;;;;;5076184;28;20135;-81
2023/06/23 10:51:18;;;;;;;22.23;18.80;;;26.30;99.90;;;;;;5074713;28;20021;-80
2023/06/23 10:53:55;;;;;;;21.05;18.42;;;26.40;99.90;;;;;;5074532;28;20477;-80
2023/06/23 10:56:36;;;;;;;23.42;19.08;;;26.60;99.90;;;;;;5074507;28;20080;-81
2023/06/23 10:59:27;;;;;;;25.05;19.50;;;27.00;99.90;;;;;;5074473;28;20040;-80
2023/06/23 11:02:06;;;;;;;26.17;18.58;;;27.10;99.90;;;;;;5075552;28;20024;-80
2023/06/23 11:04:34;;;;;;;23.05;18.05;;;27.20;99.90;;;;;;5074506;28;20501;-80
2023/06/23 11:07:13;;;;;;;21.10;17.75;;;27.10;99.90;;;;;;5074235;28;20029;-80
2023/06/23 11:10:01;;;;;;;23.73;18.88;;;27.30;99.90;;;;;;5075501;28;20035;-81
2023/06/23 11:12:42;;;;;;;18.98;16.15;;;27.30;99.90;;;;;;5075826;28;20043;-82
2023/06/23 11:15:19;;;;;;;23.90;17.30;;;27.20;92.00;;;;;;5074006;28;20032;-81
2023/06/23 11:17:51;;;;;;;23.77;17.90;;;27.20;99.10;;;;;;5075328;28;20021;-80
2023/06/23 11:20:20;;;;;;;20.98;18.50;;;27.20;97.50;;;;;;5074562;28;20115;-81
2023/06/23 11:23:05;;;;;;;43.70;34.15;;;27.30;99.90;;;;;;5073329;28;20057;-82
2023/06/23 11:25:39;;;;;;;28.67;22.02;;;27.20;98.90;;;;;;5074685;28;20094;-82
2023/06/23 11:28:24;;;;;;;25.65;18.85;;;27.10;94.50;;;;;;5073659;28;20116;-82
2023/06/23 11:31:17;;;;;;;22.73;15.50;;;27.20;93.80;;;;;;5074900;28;20032;-80
2023/06/23 11:33:44;;;;;;;21.17;14.65;;;27.40;91.40;;;;;;5073411;28;20027;-81
2023/06/23 11:36:19;;;;;;;20.50;15.88;;;27.40;89.60;;;;;;5074869;28;20039;-79
2023/06/23 11:38:45;;;;;;;32.15;16.65;;;27.50;94.20;;;;;;5073402;28;20021;-80
2023/06/23 11:41:13;;;;;;;24.52;17.27;;;27.50;92.20;;;;;;5074717;28;20036;-81
2023/06/23 11:43:38;;;;;;;31.20;24.08;;;27.70;88.40;;;;;;5073181;28;20115;-82
2023/06/23 11:46:13;;;;;;;36.78;18.00;;;27.80;85.90;;;;;;5073310;28;20056;-80
2023/06/23 11:48:40;;;;;;;17.80;10.82;;;27.80;78.10;;;;;;5073610;28;20060;-81
2023/06/23 11:51:08;;;;;;;18.02;9.27;;;27.80;74.90;;;;;;5074382;28;20032;-80
2023/06/23 11:53:35;;;;;;;23.80;12.32;;;27.80;74.80;;;;;;5072923;28;20043;-81
2023/06/23 11:56:02;;;;;;;17.40;9.80;;;27.90;79.50;;;;;;5072888;28;20070;-81
2023/06/23 11:58:32;;;;;;;8.48;6.82;;;27.70;73.90;;;;;;5074622;28;20459;-80
2023/06/23 12:00:58;;;;;;;16.85;9.95;;;27.50;73.40;;;;;;5074617;28;20390;-81
2023/06/23 12:03:25;;;;;;;19.60;10.98;;;27.50;75.60;;;;;;5074300;28;20181;-81
2023/06/23 12:05:51;;;;;;;25.33;13.00;;;27.40;75.50;;;;;;5074359;28;20024;-80
2023/06/23 12:08:17;;;;;;;19.25;11.05;;;27.40;76.00;;;;;;5072994;28;20028;-81
2023/06/23 12:10:43;;;;;;;16.73;10.25;;;27.20;77.10;;;;;;5073314;28;20025;-80
2023/06/23 12:13:12;;;;;;;20.00;11.75;;;27.10;77.40;;;;;;5074303;28;20468;-81
2023/06/23 12:15:38;;;;;;;18.98;11.55;;;27.20;80.00;;;;;;5072982;28;20028;-80
2023/06/23 12:18:04;;;;;;;12.80;9.50;;;27.20;81.90;;;;;;5074066;28;20056;-80
2023/06/23 12:20:35;;;;;;;24.25;12.98;;;27.30;80.50;;;;;;5072857;28;20031;-80
2023/06/23 12:23:05;;;;;;;18.77;10.25;;;27.30;80.80;;;;;;5073824;28;20043;-81
2023/06/23 12:25:35;;;;;;;18.90;11.55;;;27.30;76.90;;;;;;5072921;28;20115;-81
2023/06/23 12:28:03;;;;;;;15.93;8.95;;;27.20;75.20;;;;;;5072681;28;20029;-81
2023/06/23 12:30:41;;;;;;;24.95;13.18;;;27.20;75.30;;;;;;5074045;28;20028;-80
2023/06/23 12:33:17;;;;;;;12.05;9.07;;;27.30;78.50;;;;;;5072599;28;20052;-79
2023/06/23 12:36:05;;;;;;;23.70;11.35;;;27.40;77.60;;;;;;5072865;28;20504;-81
2023/06/23 12:38:37;;;;;;;17.00;9.85;;;27.40;78.30;;;;;;5073876;28;20024;-81
2023/06/23 12:41:24;;;;;;;14.45;8.25;;;27.40;78.40;;;;;;5073689;28;20016;-81